sensor_id;sensor_type;location;lat;lon;timestamp;pressure;altitude;pressure_sealevel;temperature;humidity
62524;BME280;53689;56.878;60.672;2024-03-07T00:00:57;98116.44;;;23.24;21.00
62524;BME280;53689;56.878;60.672;2024-03-07T00:03:25;98116.66;;;23.36;21.51
62524;BME280;53689;56.878;60.672;2024-03-07T00:05:53;98115.00;;;23.35;21.38
62524;BME280;53689;56.878;60.672;2024-03-07T00:08:21;98114.38;;;23.33;20.31
62524;BME280;53689;56.878;60.672;2024-03-07T00:10:49;98120.59;;;23.34;20.88
62524;BME280;53689;56.878;60.672;2024-03-07T00:13:16;98125.56;;;23.37;20.90
62524;BME280;53689;56.878;60.672;2024-03-07T00:15:44;98119.34;;;23.23;20.76
62524;BME280;53689;56.878;60.672;2024-03-07T00:18:14;98127.50;;;23.30;21.12
62524;BME280;53689;56.878;60.672;2024-03-07T00:20:42;98123.31;;;23.27;21.59
62524;BME280;53689;56.878;60.672;2024-03-07T00:23:09;98131.00;;;23.30;21.95
62524;BME280;53689;56.878;60.672;2024-03-07T00:25:37;98123.94;;;23.22;21.00
62524;BME280;53689;56.878;60.672;2024-03-07T00:28:05;98119.34;;;23.23;20.94
62524;BME280;53689;56.878;60.672;2024-03-07T00:30:33;98124.34;;;23.26;21.71
62524;BME280;53689;56.878;60.672;2024-03-07T00:33:01;98121.41;;;23.27;21.69
62524;BME280;53689;56.878;60.672;2024-03-07T00:35:30;98129.75;;;23.26;21.17
62524;BME280;53689;56.878;60.672;2024-03-07T00:37:58;98133.50;;;23.25;20.90
62524;BME280;53689;56.878;60.672;2024-03-07T00:40:26;98128.31;;;23.23;21.53
62524;BME280;53689;56.878;60.672;2024-03-07T00:42:54;98127.69;;;23.21;21.19
62524;BME280;53689;56.878;60.672;2024-03-07T00:45:22;98129.16;;;23.24;20.34
62524;BME280;53689;56.878;60.672;2024-03-07T00:47:51;98124.16;;;23.14;21.43
62524;BME280;53689;56.878;60.672;2024-03-07T00:50:19;98127.06;;;23.12;20.16
62524;BME280;53689;56.878;60.672;2024-03-07T00:52:48;98125.38;;;23.18;21.24
62524;BME280;53689;56.878;60.672;2024-03-07T00:55:16;98119.38;;;23.16;20.75
62524;BME280;53689;56.878;60.672;2024-03-07T00:57:44;98126.03;;;23.13;20.70
62524;BME280;53689;56.878;60.672;2024-03-07T01:00:12;98123.75;;;23.10;21.18
62524;BME280;53689;56.878;60.672;2024-03-07T01:02:40;98117.53;;;23.03;20.12
62524;BME280;53689;56.878;60.672;2024-03-07T01:05:08;98123.56;;;23.12;21.19
62524;BME280;53689;56.878;60.672;2024-03-07T01:07:36;98123.16;;;23.02;20.77
62524;BME280;53689;56.878;60.672;2024-03-07T01:10:06;98126.88;;;23.14;21.12
62524;BME280;53689;56.878;60.672;2024-03-07T01:12:34;98120.25;;;22.96;19.63
62524;BME280;53689;56.878;60.672;2024-03-07T01:15:03;98119.19;;;23.04;20.93
62524;BME280;53689;56.878;60.672;2024-03-07T01:17:31;98122.53;;;23.06;20.76
62524;BME280;53689;56.878;60.672;2024-03-07T01:19:59;98130.41;;;23.01;20.50
62524;BME280;53689;56.878;60.672;2024-03-07T01:22:27;98124.19;;;22.94;19.30
62524;BME280;53689;56.878;60.672;2024-03-07T01:24:55;98114.25;;;22.94;20.32
62524;BME280;53689;56.878;60.672;2024-03-07T01:27:24;98108.66;;;22.96;19.43
62524;BME280;53689;56.878;60.672;2024-03-07T01:29:52;98111.97;;;22.91;20.31
62524;BME280;53689;56.878;60.672;2024-03-07T01:32:23;98110.94;;;22.92;21.45
62524;BME280;53689;56.878;60.672;2024-03-07T01:34:51;98113.00;;;22.97;20.78
62524;BME280;53689;56.878;60.672;2024-03-07T01:37:19;98107.59;;;22.90;20.15
62524;BME280;53689;56.878;60.672;2024-03-07T01:39:47;98107.19;;;22.86;18.75
62524;BME280;53689;56.878;60.672;2024-03-07T01:42:15;98101.34;;;22.96;20.46
62524;BME280;53689;56.878;60.672;2024-03-07T01:44:44;98105.72;;;22.91;19.75
62524;BME280;53689;56.878;60.672;2024-03-07T01:47:12;98109.69;;;22.81;19.33
62524;BME280;53689;56.878;60.672;2024-03-07T01:49:40;98111.13;;;22.91;18.81
62524;BME280;53689;56.878;60.672;2024-03-07T01:52:09;98104.28;;;22.81;19.14
62524;BME280;53689;56.878;60.672;2024-03-07T01:54:39;98109.47;;;22.76;18.88
62524;BME280;53689;56.878;60.672;2024-03-07T01:57:08;98108.84;;;22.74;21.33
62524;BME280;53689;56.878;60.672;2024-03-07T01:59:37;98109.91;;;22.86;21.71
62524;BME280;53689;56.878;60.672;2024-03-07T02:02:06;98118.63;;;22.82;22.03
62524;BME280;53689;56.878;60.672;2024-03-07T02:04:34;98114.88;;;22.76;23.18
62524;BME280;53689;56.878;60.672;2024-03-07T02:07:02;98114.47;;;22.79;21.79
62524;BME280;53689;56.878;60.672;2024-03-07T02:09:30;98103.44;;;22.81;22.09
62524;BME280;53689;56.878;60.672;2024-03-07T02:11:58;98110.72;;;22.80;22.58
62524;BME280;53689;56.878;60.672;2024-03-07T02:14:25;98110.72;;;22.80;21.29
62524;BME280;53689;56.878;60.672;2024-03-07T02:16:53;98114.25;;;22.74;22.06
62524;BME280;53689;56.878;60.672;2024-03-07T02:19:23;98114.25;;;22.74;22.01
62524;BME280;53689;56.878;60.672;2024-03-07T02:21:53;98116.13;;;22.67;22.64
62524;BME280;53689;56.878;60.672;2024-03-07T02:24:21;98116.13;;;22.80;21.93
62524;BME280;53689;56.878;60.672;2024-03-07T02:26:48;98118.41;;;22.83;22.46
62524;BME280;53689;56.878;60.672;2024-03-07T02:29:16;98115.72;;;22.77;23.59
62524;BME280;53689;56.878;60.672;2024-03-07T02:31:44;98115.50;;;22.78;22.28
62524;BME280;53689;56.878;60.672;2024-03-07T02:34:12;98118.41;;;22.77;23.14
62524;BME280;53689;56.878;60.672;2024-03-07T02:36:40;98117.75;;;22.27;20.73
62524;BME280;53689;56.878;60.672;2024-03-07T02:39:09;98116.56;;;22.50;21.41
62524;BME280;53689;56.878;60.672;2024-03-07T02:41:37;98114.91;;;22.63;21.93
62524;BME280;53689;56.878;60.672;2024-03-07T02:44:05;98124.25;;;22.73;21.55
62524;BME280;53689;56.878;60.672;2024-03-07T02:46:33;98120.69;;;22.73;21.86
62524;BME280;53689;56.878;60.672;2024-03-07T02:49:02;98125.06;;;22.74;22.10
62524;BME280;53689;56.878;60.672;2024-03-07T02:51:29;98122.16;;;22.76;21.99
62524;BME280;53689;56.878;60.672;2024-03-07T02:53:57;98126.09;;;22.80;21.77
62524;BME280;53689;56.878;60.672;2024-03-07T02:56:27;98119.84;;;22.86;21.58
62524;BME280;53689;56.878;60.672;2024-03-07T02:58:56;98116.34;;;22.65;21.63
62524;BME280;53689;56.878;60.672;2024-03-07T03:01:25;98121.53;;;22.67;23.26
62524;BME280;53689;56.878;60.672;2024-03-07T03:03:53;98119.44;;;22.82;22.69
62524;BME280;53689;56.878;60.672;2024-03-07T03:06:21;98121.09;;;22.97;20.29
62524;BME280;53689;56.878;60.672;2024-03-07T03:08:49;98126.91;;;22.94;20.67
62524;BME280;53689;56.878;60.672;2024-03-07T03:11:17;98126.03;;;23.07;21.10
62524;BME280;53689;56.878;60.672;2024-03-07T03:13:46;98128.53;;;23.08;22.26
62524;BME280;53689;56.878;60.672;2024-03-07T03:16:14;98126.47;;;23.10;20.90
62524;BME280;53689;56.878;60.672;2024-03-07T03:18:42;98123.94;;;23.22;22.38
62524;BME280;53689;56.878;60.672;2024-03-07T03:21:10;98122.09;;;23.30;22.04
62524;BME280;53689;56.878;60.672;2024-03-07T03:23:38;98127.66;;;23.35;22.53
62524;BME280;53689;56.878;60.672;2024-03-07T03:26:05;98132.25;;;23.34;22.14
62524;BME280;53689;56.878;60.672;2024-03-07T03:28:33;98126.00;;;23.34;22.62
62524;BME280;53689;56.878;60.672;2024-03-07T03:31:03;98119.97;;;23.38;23.02
62524;BME280;53689;56.878;60.672;2024-03-07T03:33:30;98125.81;;;23.35;22.65
62524;BME280;53689;56.878;60.672;2024-03-07T03:35:58;98123.72;;;23.37;23.09
62524;BME280;53689;56.878;60.672;2024-03-07T03:38:26;98119.97;;;23.38;23.02
62524;BME280;53689;56.878;60.672;2024-03-07T03:40:54;98120.59;;;23.40;23.30
62524;BME280;53689;56.878;60.672;2024-03-07T03:43:21;98122.09;;;23.30;22.70
62524;BME280;53689;56.878;60.672;2024-03-07T03:45:50;98121.03;;;23.37;23.19
62524;BME280;53689;56.878;60.672;2024-03-07T03:48:19;98122.50;;;23.20;23.81
62524;BME280;53689;56.878;60.672;2024-03-07T03:50:47;98126.22;;;23.39;23.25
62524;BME280;53689;56.878;60.672;2024-03-07T03:53:15;98118.94;;;23.26;22.66
62524;BME280;53689;56.878;60.672;2024-03-07T03:55:42;98126.22;;;23.39;22.92
62524;BME280;53689;56.878;60.672;2024-03-07T03:58:11;98130.97;;;23.44;22.97
62524;BME280;53689;56.878;60.672;2024-03-07T04:00:39;98128.06;;;23.38;22.58
62524;BME280;53689;56.878;60.672;2024-03-07T04:03:06;98126.41;;;23.37;22.86
62524;BME280;53689;56.878;60.672;2024-03-07T04:05:36;98132.44;;;23.39;22.45
62524;BME280;53689;56.878;60.672;2024-03-07T04:08:04;98134.69;;;23.42;23.68
62524;BME280;53689;56.878;60.672;2024-03-07T04:10:32;98131.59;;;23.46;23.20
62524;BME280;53689;56.878;60.672;2024-03-07T04:13:00;98132.22;;;23.41;23.64
62524;BME280;53689;56.878;60.672;2024-03-07T04:15:27;98136.34;;;23.50;22.23
62524;BME280;53689;56.878;60.672;2024-03-07T04:17:55;98137.59;;;23.48;22.22
62524;BME280;53689;56.878;60.672;2024-03-07T04:20:23;98143.41;;;23.51;22.38
62524;BME280;53689;56.878;60.672;2024-03-07T04:22:53;98141.16;;;23.48;22.55
62524;BME280;53689;56.878;60.672;2024-03-07T04:25:21;98151.97;;;23.48;22.59
62524;BME280;53689;56.878;60.672;2024-03-07T04:27:49;98140.94;;;23.43;23.21
62524;BME280;53689;56.878;60.672;2024-03-07T04:30:17;98148.81;;;23.51;22.46
62524;BME280;53689;56.878;60.672;2024-03-07T04:32:45;98140.75;;;23.45;23.42
62524;BME280;53689;56.878;60.672;2024-03-07T04:35:13;98145.50;;;23.49;22.30
62524;BME280;53689;56.878;60.672;2024-03-07T04:37:45;98147.22;;;23.23;20.72
62524;BME280;53689;56.878;60.672;2024-03-07T04:40:14;98143.22;;;23.46;22.15
62524;BME280;53689;56.878;60.672;2024-03-07T04:42:43;98149.44;;;23.53;22.06
62524;BME280;53689;56.878;60.672;2024-03-07T04:45:11;98143.44;;;23.45;22.41
62524;BME280;53689;56.878;60.672;2024-03-07T04:47:39;98147.97;;;23.51;22.83
62524;BME280;53689;56.878;60.672;2024-03-07T04:50:07;98142.59;;;23.44;20.41
62524;BME280;53689;56.878;60.672;2024-03-07T04:52:36;98143.63;;;23.50;21.63
62524;BME280;53689;56.878;60.672;2024-03-07T04:55:05;98140.88;;;23.56;21.92
62524;BME280;53689;56.878;60.672;2024-03-07T04:57:34;98144.88;;;23.47;22.54
62524;BME280;53689;56.878;60.672;2024-03-07T05:00:02;98147.34;;;23.55;22.58
62524;BME280;53689;56.878;60.672;2024-03-07T05:02:30;98142.97;;;23.54;22.02
62524;BME280;53689;56.878;60.672;2024-03-07T05:04:58;98135.09;;;23.46;21.71
62524;BME280;53689;56.878;60.672;2024-03-07T05:07:25;98134.69;;;23.42;22.41
62524;BME280;53689;56.878;60.672;2024-03-07T05:09:54;98149.91;;;23.44;22.82
62524;BME280;53689;56.878;60.672;2024-03-07T05:12:21;98136.75;;;23.47;22.46
62524;BME280;53689;56.878;60.672;2024-03-07T05:14:51;98128.88;;;23.46;22.50
62524;BME280;53689;56.878;60.672;2024-03-07T05:17:18;98135.09;;;23.53;22.88
62524;BME280;53689;56.878;60.672;2024-03-07T05:19:46;98131.53;;;23.59;22.63
62524;BME280;53689;56.878;60.672;2024-03-07T05:22:14;98129.88;;;23.58;21.48
62524;BME280;53689;56.878;60.672;2024-03-07T05:24:42;98132.59;;;23.51;21.39
62524;BME280;53689;56.878;60.672;2024-03-07T05:27:10;98128.84;;;23.52;21.70
62524;BME280;53689;56.878;60.672;2024-03-07T05:29:38;98126.75;;;23.54;21.42
62524;BME280;53689;56.878;60.672;2024-03-07T05:32:22;98127.16;;;23.58;21.74
62524;BME280;53689;56.878;60.672;2024-03-07T05:34:51;98116.63;;;23.43;19.32
62524;BME280;53689;56.878;60.672;2024-03-07T05:37:19;98121.84;;;23.45;20.88
62524;BME280;53689;56.878;60.672;2024-03-07T05:39:48;98128.09;;;23.25;21.90
62524;BME280;53689;56.878;60.672;2024-03-07T05:42:15;98123.25;;;23.47;22.23
62524;BME280;53689;56.878;60.672;2024-03-07T05:44:44;98116.19;;;23.53;22.10
62524;BME280;53689;56.878;60.672;2024-03-07T05:47:12;98115.38;;;23.46;22.54
62524;BME280;53689;56.878;60.672;2024-03-07T05:49:41;98122.88;;;23.44;21.66
62524;BME280;53689;56.878;60.672;2024-03-07T05:52:09;98121.63;;;23.39;19.56
62524;BME280;53689;56.878;60.672;2024-03-07T05:54:37;98116.78;;;23.55;22.46
62524;BME280;53689;56.878;60.672;2024-03-07T05:57:05;98115.31;;;23.59;22.38
62524;BME280;53689;56.878;60.672;2024-03-07T05:59:33;98113.22;;;23.61;22.74
62524;BME280;53689;56.878;60.672;2024-03-07T06:02:01;98112.59;;;23.59;22.40
62524;BME280;53689;56.878;60.672;2024-03-07T06:04:29;98101.41;;;23.62;22.82
62524;BME280;53689;56.878;60.672;2024-03-07T06:06:58;98103.66;;;23.65;21.62
62524;BME280;53689;56.878;60.672;2024-03-07T06:09:26;98089.28;;;23.72;21.74
62524;BME280;53689;56.878;60.672;2024-03-07T06:11:54;98081.59;;;23.68;21.66
62524;BME280;53689;56.878;60.672;2024-03-07T06:14:22;98073.47;;;23.68;22.53
62524;BME280;53689;56.878;60.672;2024-03-07T06:16:50;98082.00;;;23.72;20.96
62524;BME280;53689;56.878;60.672;2024-03-07T06:19:18;98088.25;;;23.73;21.20
62524;BME280;53689;56.878;60.672;2024-03-07T06:21:48;98080.53;;;23.69;22.06
62524;BME280;53689;56.878;60.672;2024-03-07T06:24:17;98088.09;;;23.61;20.75
62524;BME280;53689;56.878;60.672;2024-03-07T06:26:45;98078.88;;;23.68;20.69
62524;BME280;53689;56.878;60.672;2024-03-07T06:29:15;98076.78;;;23.70;21.36
62524;BME280;53689;56.878;60.672;2024-03-07T06:31:44;98077.44;;;23.73;21.38
62524;BME280;53689;56.878;60.672;2024-03-07T06:34:12;98069.78;;;23.63;19.44
62524;BME280;53689;56.878;60.672;2024-03-07T06:36:40;98071.22;;;23.65;20.74
62524;BME280;53689;56.878;60.672;2024-03-07T06:39:07;98063.94;;;23.66;21.02
62524;BME280;53689;56.878;60.672;2024-03-07T06:41:37;98073.69;;;23.74;20.77
62524;BME280;53689;56.878;60.672;2024-03-07T06:44:05;98062.41;;;23.77;21.62
62524;BME280;53689;56.878;60.672;2024-03-07T06:46:33;98052.09;;;23.67;21.85
62524;BME280;53689;56.878;60.672;2024-03-07T06:49:01;98059.97;;;23.68;19.99
62524;BME280;53689;56.878;60.672;2024-03-07T06:51:29;98063.28;;;23.70;18.73
62524;BME280;53689;56.878;60.672;2024-03-07T06:53:57;98064.78;;;23.66;20.99
62524;BME280;53689;56.878;60.672;2024-03-07T06:56:25;98062.25;;;23.72;21.06
62524;BME280;53689;56.878;60.672;2024-03-07T06:58:54;98064.06;;;23.78;20.75
62524;BME280;53689;56.878;60.672;2024-03-07T07:01:22;98061.16;;;23.79;20.45
62524;BME280;53689;56.878;60.672;2024-03-07T07:03:50;98052.84;;;23.81;21.33
62524;BME280;53689;56.878;60.672;2024-03-07T07:06:18;98050.78;;;23.76;22.28
62524;BME280;53689;56.878;60.672;2024-03-07T07:08:46;98061.22;;;23.73;20.57
62524;BME280;53689;56.878;60.672;2024-03-07T07:11:13;98051.41;;;23.78;21.37
62524;BME280;53689;56.878;60.672;2024-03-07T07:13:41;98045.00;;;23.66;20.86
62524;BME280;53689;56.878;60.672;2024-03-07T07:16:11;98045.41;;;23.69;20.58
62524;BME280;53689;56.878;60.672;2024-03-07T07:18:39;98039.66;;;23.59;20.92
62524;BME280;53689;56.878;60.672;2024-03-07T07:21:07;98047.78;;;23.52;22.34
62524;BME280;53689;56.878;60.672;2024-03-07T07:23:35;98045.13;;;23.46;21.47
62524;BME280;53689;56.878;60.672;2024-03-07T07:26:03;98040.06;;;23.10;18.38
62524;BME280;53689;56.878;60.672;2024-03-07T07:28:31;98038.84;;;22.93;18.10
62524;BME280;53689;56.878;60.672;2024-03-07T07:30:59;98041.38;;;22.74;17.91
62524;BME280;53689;56.878;60.672;2024-03-07T07:33:29;98034.78;;;22.63;18.17
62524;BME280;53689;56.878;60.672;2024-03-07T07:35:56;98039.31;;;22.42;17.98
62524;BME280;53689;56.878;60.672;2024-03-07T07:38:25;98034.78;;;22.56;19.11
62524;BME280;53689;56.878;60.672;2024-03-07T07:40:52;98028.56;;;22.56;18.03
62524;BME280;53689;56.878;60.672;2024-03-07T07:43:20;98026.91;;;22.48;18.44
62524;BME280;53689;56.878;60.672;2024-03-07T07:46:03;98033.13;;;22.55;19.76
62524;BME280;53689;56.878;60.672;2024-03-07T07:48:33;98028.09;;;22.79;20.55
62524;BME280;53689;56.878;60.672;2024-03-07T07:51:01;98029.06;;;23.05;21.17
62524;BME280;53689;56.878;60.672;2024-03-07T07:53:29;98020.66;;;22.75;19.27
62524;BME280;53689;56.878;60.672;2024-03-07T07:55:57;98018.97;;;22.80;18.40
62524;BME280;53689;56.878;60.672;2024-03-07T07:58:25;98018.38;;;22.44;19.75
62524;BME280;53689;56.878;60.672;2024-03-07T08:00:53;98017.34;;;22.25;20.24
62524;BME280;53689;56.878;60.672;2024-03-07T08:03:22;98023.16;;;22.36;18.60
62524;BME280;53689;56.878;60.672;2024-03-07T08:05:52;98018.81;;;22.28;19.01
62524;BME280;53689;56.878;60.672;2024-03-07T08:08:19;98025.44;;;22.32;18.87
62524;BME280;53689;56.878;60.672;2024-03-07T08:10:48;98022.34;;;22.35;19.27
62524;BME280;53689;56.878;60.672;2024-03-07T08:13:16;98021.06;;;22.38;18.99
62524;BME280;53689;56.878;60.672;2024-03-07T08:15:43;98013.00;;;22.17;19.29
62524;BME280;53689;56.878;60.672;2024-03-07T08:18:11;98012.59;;;22.14;19.06
62524;BME280;53689;56.878;60.672;2024-03-07T08:20:40;98013.19;;;22.23;19.18
62524;BME280;53689;56.878;60.672;2024-03-07T08:23:10;98010.72;;;22.35;19.78
62524;BME280;53689;56.878;60.672;2024-03-07T08:25:39;98002.59;;;22.62;19.52
62524;BME280;53689;56.878;60.672;2024-03-07T08:28:07;98004.06;;;22.37;19.58
62524;BME280;53689;56.878;60.672;2024-03-07T08:30:35;97994.97;;;22.04;19.01
62524;BME280;53689;56.878;60.672;2024-03-07T08:33:04;98001.78;;;22.27;18.94
62524;BME280;53689;56.878;60.672;2024-03-07T08:35:32;97992.25;;;22.11;18.38
62524;BME280;53689;56.878;60.672;2024-03-07T08:38:00;98000.97;;;22.07;19.68
62524;BME280;53689;56.878;60.672;2024-03-07T08:40:30;97994.16;;;22.11;18.73
62524;BME280;53689;56.878;60.672;2024-03-07T08:42:59;98002.84;;;22.53;19.33
62524;BME280;53689;56.878;60.672;2024-03-07T08:45:28;97987.25;;;22.28;19.13
62524;BME280;53689;56.878;60.672;2024-03-07T08:47:57;97990.38;;;22.45;20.19
62524;BME280;53689;56.878;60.672;2024-03-07T08:50:27;97988.75;;;22.11;19.35
62524;BME280;53689;56.878;60.672;2024-03-07T08:52:56;97989.56;;;22.58;19.22
62524;BME280;53689;56.878;60.672;2024-03-07T08:55:24;97980.22;;;22.41;20.78
62524;BME280;53689;56.878;60.672;2024-03-07T08:57:54;97981.06;;;22.08;20.77
62524;BME280;53689;56.878;60.672;2024-03-07T09:00:22;97977.97;;;22.17;20.26
62524;BME280;53689;56.878;60.672;2024-03-07T09:02:52;97982.91;;;22.54;20.28
62524;BME280;53689;56.878;60.672;2024-03-07T09:05:21;97980.19;;;22.48;21.09
62524;BME280;53689;56.878;60.672;2024-03-07T09:07:51;97982.88;;;22.61;20.58
62524;BME280;53689;56.878;60.672;2024-03-07T09:10:20;97983.25;;;22.71;20.77
62524;BME280;53689;56.878;60.672;2024-03-07T09:12:50;97984.09;;;22.72;20.81
62524;BME280;53689;56.878;60.672;2024-03-07T09:15:21;97985.78;;;22.66;20.34
62524;BME280;53689;56.878;60.672;2024-03-07T09:17:51;97982.84;;;22.81;20.95
62524;BME280;53689;56.878;60.672;2024-03-07T09:20:19;97974.75;;;22.81;20.53
62524;BME280;53689;56.878;60.672;2024-03-07T09:22:49;97978.25;;;22.89;21.14
62524;BME280;53689;56.878;60.672;2024-03-07T09:25:18;97971.00;;;22.82;20.86
62524;BME280;53689;56.878;60.672;2024-03-07T09:27:47;97967.25;;;22.83;20.92
62524;BME280;53689;56.878;60.672;2024-03-07T09:30:15;97960.63;;;22.79;21.17
62524;BME280;53689;56.878;60.672;2024-03-07T09:32:44;97948.16;;;22.85;20.98
62524;BME280;53689;56.878;60.672;2024-03-07T09:35:12;97953.13;;;22.88;21.02
62524;BME280;53689;56.878;60.672;2024-03-07T09:37:40;97945.84;;;22.89;21.21
62524;BME280;53689;56.878;60.672;2024-03-07T09:40:09;97946.47;;;22.91;20.96
62524;BME280;53689;56.878;60.672;2024-03-07T09:42:42;97942.13;;;22.90;21.08
62524;BME280;53689;56.878;60.672;2024-03-07T09:45:14;97936.50;;;22.84;21.13
62524;BME280;53689;56.878;60.672;2024-03-07T09:47:45;97933.03;;;22.77;20.83
62524;BME280;53689;56.878;60.672;2024-03-07T09:50:15;97934.00;;;22.90;20.88
62524;BME280;53689;56.878;60.672;2024-03-07T09:52:46;97928.47;;;22.71;20.70
62524;BME280;53689;56.878;60.672;2024-03-07T09:55:14;97924.75;;;22.72;20.05
62524;BME280;53689;56.878;60.672;2024-03-07T09:57:42;97927.63;;;22.77;20.29
62524;BME280;53689;56.878;60.672;2024-03-07T10:00:11;97918.50;;;22.78;20.35
62524;BME280;53689;56.878;60.672;2024-03-07T10:02:39;97930.59;;;22.55;19.65
62524;BME280;53689;56.878;60.672;2024-03-07T10:05:10;97918.47;;;21.99;19.04
62524;BME280;53689;56.878;60.672;2024-03-07T10:07:42;97926.06;;;22.29;18.96
62524;BME280;53689;56.878;60.672;2024-03-07T10:10:10;97923.13;;;22.44;20.05
62524;BME280;53689;56.878;60.672;2024-03-07T10:12:38;97925.25;;;22.35;20.22
62524;BME280;53689;56.878;60.672;2024-03-07T10:15:07;97915.47;;;22.54;20.41
62524;BME280;53689;56.878;60.672;2024-03-07T10:17:35;97925.25;;;22.28;19.77
62524;BME280;53689;56.878;60.672;2024-03-07T10:20:04;97918.16;;;22.54;20.41
62524;BME280;53689;56.878;60.672;2024-03-07T10:22:33;97915.91;;;22.51;20.89
62524;BME280;53689;56.878;60.672;2024-03-07T10:25:01;97914.25;;;22.50;20.17
62524;BME280;53689;56.878;60.672;2024-03-07T10:27:30;97908.16;;;22.68;20.89
62524;BME280;53689;56.878;60.672;2024-03-07T10:29:58;97910.50;;;22.51;21.47
62524;BME280;53689;56.878;60.672;2024-03-07T10:32:27;97905.25;;;22.70;19.81
62524;BME280;53689;56.878;60.672;2024-03-07T10:34:54;97897.00;;;22.51;20.21
62524;BME280;53689;56.878;60.672;2024-03-07T10:37:22;97912.34;;;22.44;19.70
62524;BME280;53689;56.878;60.672;2024-03-07T10:39:52;97894.06;;;22.59;20.16
62524;BME280;53689;56.878;60.672;2024-03-07T10:42:20;97903.44;;;22.50;20.17
62524;BME280;53689;56.878;60.672;2024-03-07T10:44:48;97894.34;;;21.23;18.99
62524;BME280;53689;56.878;60.672;2024-03-07T10:47:17;97886.13;;;21.92;20.32
62524;BME280;53689;56.878;60.672;2024-03-07T10:50:04;97894.94;;;22.33;19.91
62524;BME280;53689;56.878;60.672;2024-03-07T10:52:39;97893.66;;;22.56;20.22
62524;BME280;53689;56.878;60.672;2024-03-07T10:55:16;97881.19;;;22.62;19.59
62524;BME280;53689;56.878;60.672;2024-03-07T10:57:50;97880.41;;;22.41;18.97
62524;BME280;53689;56.878;60.672;2024-03-07T11:00:18;97884.34;;;22.52;20.18
62524;BME280;53689;56.878;60.672;2024-03-07T11:02:47;97879.13;;;22.57;20.43
62524;BME280;53689;56.878;60.672;2024-03-07T11:05:15;97875.16;;;22.66;20.78
62524;BME280;53689;56.878;60.672;2024-03-07T11:07:44;97882.81;;;22.69;20.92
62524;BME280;53689;56.878;60.672;2024-03-07T11:10:13;97884.50;;;22.64;20.65
62524;BME280;53689;56.878;60.672;2024-03-07T11:12:42;97883.53;;;22.51;20.15
62524;BME280;53689;56.878;60.672;2024-03-07T11:15:11;97887.03;;;22.52;20.45
62524;BME280;53689;56.878;60.672;2024-03-07T11:17:40;97893.56;;;22.76;20.51
62524;BME280;53689;56.878;60.672;2024-03-07T11:20:21;97893.63;;;22.63;20.81
62524;BME280;53689;56.878;60.672;2024-03-07T11:22:49;97881.19;;;22.62;20.67
62524;BME280;53689;56.878;60.672;2024-03-07T11:25:22;97882.25;;;22.47;21.04
62524;BME280;53689;56.878;60.672;2024-03-07T11:27:55;97875.13;;;22.73;21.04
62524;BME280;53689;56.878;60.672;2024-03-07T11:30:23;97873.91;;;22.62;20.14
62524;BME280;53689;56.878;60.672;2024-03-07T11:32:52;97865.44;;;22.45;20.14
62524;BME280;53689;56.878;60.672;2024-03-07T11:35:21;97867.81;;;22.21;20.55
62524;BME280;53689;56.878;60.672;2024-03-07T11:37:48;97867.97;;;22.40;21.06
62524;BME280;53689;56.878;60.672;2024-03-07T11:40:45;97860.50;;;22.28;19.41
62524;BME280;53689;56.878;60.672;2024-03-07T11:43:13;97865.06;;;22.35;21.22
62524;BME280;53689;56.878;60.672;2024-03-07T11:45:40;97861.31;;;22.56;20.09
62524;BME280;53689;56.878;60.672;2024-03-07T11:48:08;97866.25;;;22.59;20.07
62524;BME280;53689;56.878;60.672;2024-03-07T11:50:37;97861.75;;;22.33;19.68
62524;BME280;53689;56.878;60.672;2024-03-07T11:53:07;97862.09;;;22.56;20.59
62524;BME280;53689;56.878;60.672;2024-03-07T11:55:35;97857.91;;;22.67;20.69
62524;BME280;53689;56.878;60.672;2024-03-07T11:58:05;97859.66;;;22.55;20.42
62524;BME280;53689;56.878;60.672;2024-03-07T12:00:34;97846.53;;;22.65;21.01
62524;BME280;53689;56.878;60.672;2024-03-07T12:03:02;97852.69;;;22.79;20.98
62524;BME280;53689;56.878;60.672;2024-03-07T12:05:32;97842.38;;;22.63;20.57
62524;BME280;53689;56.878;60.672;2024-03-07T12:08:01;97840.47;;;22.70;20.18
62524;BME280;53689;56.878;60.672;2024-03-07T12:10:29;97840.56;;;22.43;20.28
62524;BME280;53689;56.878;60.672;2024-03-07T12:12:57;97835.13;;;22.56;20.79
62524;BME280;53689;56.878;60.672;2024-03-07T12:15:27;97832.19;;;22.65;20.71
62524;BME280;53689;56.878;60.672;2024-03-07T12:17:55;97835.53;;;22.60;19.89
62524;BME280;53689;56.878;60.672;2024-03-07T12:20:22;97831.78;;;22.61;20.97
62524;BME280;53689;56.878;60.672;2024-03-07T12:22:51;97829.94;;;22.62;21.40
62524;BME280;53689;56.878;60.672;2024-03-07T12:25:19;97826.16;;;22.69;21.79
62524;BME280;53689;56.878;60.672;2024-03-07T12:27:47;97828.66;;;22.71;21.20
62524;BME280;53689;56.878;60.672;2024-03-07T12:30:15;97834.25;;;22.69;20.89
62524;BME280;53689;56.878;60.672;2024-03-07T12:32:48;97827.69;;;22.58;21.11
62524;BME280;53689;56.878;60.672;2024-03-07T12:35:16;97828.44;;;22.66;20.77
62524;BME280;53689;56.878;60.672;2024-03-07T12:37:44;97819.50;;;22.72;20.99
62524;BME280;53689;56.878;60.672;2024-03-07T12:40:13;97821.25;;;22.46;21.68
62524;BME280;53689;56.878;60.672;2024-03-07T12:42:40;97815.00;;;22.59;21.32
62524;BME280;53689;56.878;60.672;2024-03-07T12:45:10;97819.00;;;22.43;20.09
62524;BME280;53689;56.878;60.672;2024-03-07T12:47:38;97813.59;;;22.43;20.42
62524;BME280;53689;56.878;60.672;2024-03-07T12:50:08;97814.38;;;22.57;21.70
62524;BME280;53689;56.878;60.672;2024-03-07T12:52:36;97818.78;;;22.44;20.59
62524;BME280;53689;56.878;60.672;2024-03-07T12:55:05;97807.75;;;22.46;20.56
62524;BME280;53689;56.878;60.672;2024-03-07T12:57:33;97814.44;;;22.43;21.47